createdAt,value
2022-12-08T00:03:28.329Z,0.95
2022-12-08T00:11:04.072Z,0.98
2022-12-08T00:18:38.475Z,0.97
2022-12-08T00:26:13.511Z,0.95
2022-12-08T00:33:47.338Z,1.00
2022-12-08T00:41:44.479Z,0.94
2022-12-08T00:49:18.875Z,1.02
2022-12-08T00:56:54.674Z,1.08
2022-12-08T01:04:28.618Z,1.09
2022-12-08T01:12:03.831Z,1.09
2022-12-08T01:19:38.933Z,1.11
2022-12-08T01:27:16.581Z,1.14
2022-12-08T01:34:50.320Z,1.15
2022-12-08T01:42:26.399Z,1.15
2022-12-08T01:50:01.582Z,1.15
2022-12-08T01:57:43.559Z,1.18
2022-12-08T02:05:19.411Z,1.16
2022-12-08T02:12:56.898Z,1.18
2022-12-08T02:20:43.082Z,1.14
2022-12-08T02:28:45.833Z,1.21
2022-12-08T02:36:25.367Z,1.20
2022-12-08T02:44:06.621Z,1.19
2022-12-08T02:51:42.057Z,1.23
2022-12-08T02:59:34.961Z,1.21
2022-12-08T03:07:16.126Z,1.20
2022-12-08T03:14:55.084Z,1.24
2022-12-08T03:22:30.545Z,1.21
2022-12-08T03:30:05.299Z,1.25
2022-12-08T03:37:41.690Z,1.29
2022-12-08T03:45:15.589Z,1.29
2022-12-08T03:52:50.923Z,1.27
2022-12-08T04:00:25.407Z,1.30
2022-12-08T04:08:01.288Z,1.27
2022-12-08T04:15:35.494Z,1.26
2022-12-08T04:23:12.270Z,1.30
2022-12-08T04:30:46.631Z,1.35
2022-12-08T04:38:21.889Z,1.38
2022-12-08T04:45:55.633Z,1.41
2022-12-08T04:53:30.757Z,1.43
2022-12-08T05:01:04.801Z,1.46
2022-12-08T05:08:40.233Z,1.49
2022-12-08T05:16:15.938Z,1.53
2022-12-08T05:23:51.292Z,1.57
2022-12-08T05:31:26.485Z,1.60
2022-12-08T05:39:01.744Z,1.65
2022-12-08T05:46:35.877Z,1.67
2022-12-08T05:54:11.292Z,1.70
2022-12-08T06:01:46.171Z,1.72
2022-12-08T06:09:21.930Z,1.75
2022-12-08T06:16:55.999Z,1.77
2022-12-08T06:24:31.435Z,1.77
2022-12-08T06:32:05.695Z,1.79
2022-12-08T06:39:41.102Z,1.79
2022-12-08T06:47:15.184Z,1.77
2022-12-08T06:54:50.513Z,1.80
2022-12-08T07:02:25.406Z,1.84
2022-12-08T07:10:00.735Z,1.88
2022-12-08T07:17:34.636Z,1.91
2022-12-08T07:25:10.614Z,1.92
2022-12-08T07:32:44.807Z,1.97
2022-12-08T07:40:20.262Z,2.00
2022-12-08T07:47:54.161Z,2.02
2022-12-08T07:55:29.438Z,2.05
2022-12-08T08:03:04.045Z,2.06
2022-12-08T08:10:39.349Z,2.08
2022-12-08T08:18:13.269Z,2.10
2022-12-08T08:25:48.775Z,2.12
2022-12-08T08:33:23.119Z,2.16
2022-12-08T08:40:58.193Z,2.21
2022-12-08T08:48:33.141Z,2.27
2022-12-08T08:56:12.285Z,2.35
2022-12-08T09:03:48.082Z,2.42
2022-12-08T09:11:24.366Z,2.54
2022-12-08T09:18:58.294Z,2.60
2022-12-08T09:26:33.613Z,2.65
2022-12-08T09:34:07.599Z,2.69
2022-12-08T09:41:50.056Z,2.74
2022-12-08T09:49:28.063Z,2.80
2022-12-08T09:57:08.700Z,2.89
2022-12-08T10:04:43.609Z,2.95
2022-12-08T10:12:27.283Z,3.00
2022-12-08T10:20:07.855Z,3.04
2022-12-08T10:27:43.272Z,3.09
2022-12-08T10:35:18.959Z,3.12
2022-12-08T10:42:57.414Z,3.18
2022-12-08T10:50:34.510Z,3.20
2022-12-08T10:58:25.041Z,3.20
2022-12-08T11:06:08.969Z,3.20
2022-12-08T11:13:46.011Z,3.22
2022-12-08T11:21:21.093Z,3.22
2022-12-08T11:28:57.325Z,3.25
2022-12-08T11:36:36.888Z,3.28
2022-12-08T11:44:27.050Z,3.27
2022-12-08T11:52:05.371Z,3.29
2022-12-08T11:59:44.463Z,3.28
2022-12-08T12:07:50.746Z,3.21
2022-12-08T12:15:47.485Z,3.21
2022-12-08T12:23:25.492Z,3.20
2022-12-08T12:31:04.277Z,3.20
2022-12-08T12:38:58.169Z,3.23
2022-12-08T12:46:56.991Z,3.24
2022-12-08T12:54:31.061Z,3.23
2022-12-08T13:02:20.681Z,3.24
2022-12-08T13:10:01.910Z,3.27
2022-12-08T13:17:38.814Z,3.27
2022-12-08T13:26:01.719Z,3.30
2022-12-08T13:33:40.847Z,3.31
2022-12-08T13:41:19.608Z,3.35
2022-12-08T13:57:11.973Z,3.36
2022-12-08T14:12:46.848Z,3.30
2022-12-08T14:20:25.609Z,3.04
2022-12-08T14:28:02.835Z,2.93
2022-12-08T14:35:39.890Z,2.92
2022-12-08T14:43:19.608Z,2.94
2022-12-08T14:51:02.897Z,2.94
2022-12-08T14:58:36.881Z,2.90
2022-12-08T15:06:12.238Z,2.92
2022-12-08T15:13:48.087Z,2.89
2022-12-08T15:21:31.746Z,2.89
2022-12-08T15:29:12.824Z,2.84
2022-12-08T15:36:48.524Z,2.84
2022-12-08T15:44:23.230Z,2.82
2022-12-08T15:59:50.425Z,2.72
2022-12-08T16:07:28.376Z,2.69
2022-12-08T16:15:48.635Z,2.68
2022-12-08T16:23:13.040Z,2.64
2022-12-08T16:30:51.886Z,2.60
2022-12-08T16:38:27.504Z,2.57
2022-12-08T16:46:01.585Z,2.54
2022-12-08T16:53:36.936Z,2.50
2022-12-08T17:01:13.382Z,2.45
2022-12-08T17:08:48.978Z,2.38
2022-12-08T17:16:23.366Z,2.35
2022-12-08T17:24:00.101Z,2.27
2022-12-08T17:31:34.362Z,2.25
2022-12-08T17:39:13.434Z,2.20
2022-12-08T17:46:53.219Z,2.16
2022-12-08T17:54:29.980Z,2.09
2022-12-08T18:02:04.601Z,2.04
2022-12-08T18:09:40.077Z,1.98
2022-12-08T18:17:14.353Z,1.93
2022-12-08T18:24:50.228Z,1.85
2022-12-08T18:32:24.355Z,1.81
2022-12-08T18:39:59.648Z,1.66
2022-12-08T18:47:34.276Z,1.63
2022-12-08T18:55:11.015Z,1.63
2022-12-08T19:02:45.258Z,1.59
2022-12-08T19:10:20.418Z,1.52
2022-12-08T19:17:54.570Z,1.45
2022-12-08T19:25:29.944Z,1.38
2022-12-08T19:33:03.773Z,1.39
2022-12-08T19:40:59.558Z,1.31
2022-12-08T19:48:33.706Z,1.29
2022-12-08T19:56:09.719Z,1.26
2022-12-08T20:03:44.944Z,1.20
2022-12-08T20:11:21.144Z,1.23
2022-12-08T20:18:55.645Z,1.20
2022-12-08T20:26:33.903Z,1.17
2022-12-08T20:34:13.582Z,1.16
2022-12-08T20:41:49.321Z,1.17
2022-12-08T20:49:26.329Z,1.13
2022-12-08T20:57:05.486Z,1.10
2022-12-08T21:04:39.523Z,1.06
2022-12-08T21:12:14.804Z,1.02
2022-12-08T21:19:49.090Z,1.00
2022-12-08T21:27:24.891Z,0.94
2022-12-08T21:34:58.760Z,0.89
2022-12-08T21:42:46.179Z,0.85
2022-12-08T21:50:20.639Z,0.84
2022-12-08T21:57:57.208Z,0.80
2022-12-08T22:05:31.209Z,0.78
2022-12-08T22:13:06.575Z,0.75
2022-12-08T22:20:44.102Z,0.73
2022-12-08T22:28:19.685Z,0.70
2022-12-08T22:35:57.483Z,0.62
2022-12-08T22:43:32.867Z,0.57
2022-12-08T22:51:08.094Z,0.53
2022-12-08T22:58:44.484Z,0.48
2022-12-08T23:06:19.174Z,0.45
2022-12-08T23:13:56.247Z,0.39
2022-12-08T23:21:31.109Z,0.34
2022-12-08T23:29:06.417Z,0.30
2022-12-08T23:36:40.368Z,0.26
2022-12-08T23:44:15.509Z,0.23
2022-12-08T23:51:50.387Z,0.20
2022-12-08T23:59:25.600Z,0.14
